Castle Creek, New York
Current Conditions -  °F | °C
As of 6:53 AM on Sunday 21 Dec 2014 (Local Time) from KBGM Reporting Station
Overcast Overcast  
Wind Chill: 24°   Ceiling: 1600
Heat Index: 24°   Visibility: 10mi
Dew Point: 19°   Wind: 3mph
Humidity: 81%   Direction: 280°W
Pressure: 30.22"   Gusts: NA
Location:  42.23°N, 75.92°W
Report Text: KBGM 211153Z 28003KT 10SM OVC016 M04/M07 A3022 RMK AO2 SLP257 T10441072 11044 21044 53002
Loading
Personal Weather Stations






























Interactive Weather Map New forecast layout! Learn more

10-Day Weather Forecast

Advertisements
Track Severe Weather on mobile